Weather at Wellington International Airport

Public forecast

Using degrees Celsius for public forecast. Weather courtesy of forecast.io.

Current aviation weather report (METAR) for Wellington International Airport

2022/12/08 00:00 (retrieved 28 minutes ago)

NZWN 080000Z AUTO 20010KT 9999 NCD 16/09 Q1014

Closest aviation forecast (TAF) to Wellington International Airport

Closest forecast is Queenstown International Airport, 345.9 nm (640.5 km) SW.

2022/12/07 22:00 Ammendment (retrieved 2 hours ago)

AMD NZQN 072230Z 0722/0812 25012KT 9999 SCT060 BECMG 0807/0809 02005KT